Time;durP1;ratioP1;P1;durP2;ratioP2;P2;SDS_P1;SDS_P2;PMS_P1;PMS_P2;Temp;Humidity;BMP_temperature;BMP_pressure;BME280_temperature;BME280_humidity;BME280_pressure;Samples;Min_cycle;Max_cycle;Signal;HPM_P1;HPM_P2
2022/10/02 05:14:10;;;;;;;11.52;2.22;;;16.20;73.60;;;;;;5703918;24;20053;-73
2022/10/02 05:16:48;;;;;;;11.02;2.38;;;16.30;73.50;;;;;;4834911;29;20064;-72
2022/10/02 05:19:43;;;;;;;11.70;2.10;;;16.30;73.50;;;;;;4847140;29;20060;-73
2022/10/02 05:22:24;;;;;;;10.35;2.50;;;16.30;73.40;;;;;;4852392;29;20065;-73
2022/10/02 05:24:50;;;;;;;9.38;2.20;;;16.30;73.40;;;;;;4838371;29;20409;-75
2022/10/02 05:27:39;;;;;;;8.55;2.22;;;16.30;73.30;;;;;;4859707;29;20053;-74
2022/10/02 05:30:10;;;;;;;8.57;1.92;;;16.30;73.20;;;;;;4847421;29;20058;-78
2022/10/02 05:32:55;;;;;;;10.85;1.90;;;16.30;73.20;;;;;;4846882;29;20038;-79
2022/10/02 05:35:46;;;;;;;10.70;2.00;;;16.20;73.00;;;;;;4830388;29;20058;-80
2022/10/02 05:38:30;;;;;;;12.68;2.58;;;16.30;73.60;;;;;;4847661;29;20064;-81
2022/10/02 05:40:59;;;;;;;;;;;16.30;73.10;;;;;;4846272;29;20128;-81
2022/10/02 05:43:54;;;;;;;11.82;2.50;;;16.20;73.10;;;;;;4830530;29;19984;-82
2022/10/02 05:46:25;;;;;;;7.60;1.95;;;16.30;73.00;;;;;;4830043;29;20358;-81
2022/10/02 05:49:15;;;;;;;9.80;2.20;;;16.20;72.80;;;;;;4832217;29;20041;-82
2022/10/02 05:52:01;;;;;;;6.15;1.52;;;16.20;72.70;;;;;;4848671;29;20113;-81
2022/10/02 05:54:52;;;;;;;12.05;2.83;;;16.20;72.70;;;;;;4833076;29;20088;-82
2022/10/02 05:57:35;;;;;;;10.25;2.08;;;16.20;72.60;;;;;;4859439;29;20469;-81
2022/10/02 06:00:27;;;;;;;11.23;2.10;;;16.20;72.60;;;;;;4829844;29;20422;-75
2022/10/02 06:03:37;;;;;;;12.10;2.15;;;16.20;72.60;;;;;;4847225;29;20053;-75
2022/10/02 06:06:09;;;;;;;23.23;2.92;;;16.20;72.70;;;;;;4846381;29;20120;-74
2022/10/02 06:08:57;;;;;;;11.85;2.42;;;16.20;72.90;;;;;;4846362;29;20118;-76
2022/10/02 06:11:32;;;;;;;14.32;2.70;;;16.20;73.10;;;;;;4846344;29;20054;-78
2022/10/02 10:45:42;;;;;;;13.23;2.63;;;17.00;73.90;;;;;;4996707;24;20416;-75
2022/10/02 10:48:14;;;;;;;17.50;2.53;;;17.00;74.30;;;;;;4808419;29;20150;-74
2022/10/02 10:51:13;;;;;;;17.38;3.13;;;17.10;74.50;;;;;;4809071;29;20057;-75
2022/10/02 10:54:10;;;;;;;18.55;2.15;;;17.10;74.70;;;;;;4809087;29;20042;-74
2022/10/02 10:56:37;;;;;;;19.67;2.90;;;17.10;74.80;;;;;;4809857;29;20102;-73
2022/10/02 10:59:29;;;;;;;19.02;2.55;;;17.10;74.80;;;;;;4809564;29;20094;-72
2022/10/02 11:02:19;;;;;;;19.38;2.58;;;17.10;74.90;;;;;;4808989;29;20065;-74
2022/10/02 11:04:54;;;;;;;14.75;2.80;;;17.20;74.90;;;;;;4808683;29;20092;-74
2022/10/02 11:07:49;;;;;;;18.75;2.70;;;17.20;75.00;;;;;;4808806;29;20054;-75
2022/10/02 11:10:27;;;;;;;20.70;3.55;;;17.20;75.00;;;;;;4806007;29;20448;-73
2022/10/02 11:13:11;;;;;;;22.17;2.83;;;17.20;75.10;;;;;;4809041;29;20122;-72
2022/10/02 11:15:48;;;;;;;14.85;2.83;;;17.30;75.30;;;;;;4809731;29;20062;-72
2022/10/02 11:18:33;;;;;;;17.13;2.17;;;17.20;75.30;;;;;;4814741;29;20093;-75
2022/10/02 11:21:14;;;;;;;17.45;3.03;;;17.30;75.50;;;;;;4826714;29;20461;-75
2022/10/02 11:23:54;;;;;;;21.55;3.60;;;17.30;75.40;;;;;;4826703;29;20095;-75
2022/10/02 11:26:35;;;;;;;17.88;2.55;;;17.30;75.40;;;;;;4811947;29;20076;-75
2022/10/02 11:29:10;;;;;;;18.33;2.15;;;17.30;75.40;;;;;;4826763;29;20090;-74
2022/10/02 11:31:52;;;;;;;15.25;2.38;;;17.30;75.20;;;;;;4825931;29;20453;-75
2022/10/02 11:34:24;;;;;;;18.92;2.63;;;17.30;75.20;;;;;;4806114;29;20098;-74
2022/10/02 11:37:13;;;;;;;24.40;3.00;;;17.40;75.10;;;;;;4790449;30;20047;-74
2022/10/02 11:39:47;;;;;;;14.13;2.35;;;17.40;74.90;;;;;;4790442;30;20054;-73
2022/10/02 11:42:38;;;;;;;18.58;2.08;;;17.40;74.80;;;;;;4792949;29;20065;-77
2022/10/02 11:45:25;;;;;;;11.98;2.42;;;17.40;74.60;;;;;;4807479;29;20517;-74
2022/10/02 11:47:54;;;;;;;19.45;3.25;;;17.40;74.60;;;;;;4808051;29;20073;-74
2022/10/02 11:50:28;;;;;;;18.05;2.80;;;17.40;74.50;;;;;;4808268;29;20047;-74
2022/10/02 11:53:15;;;;;;;19.85;3.25;;;17.40;74.50;;;;;;4790242;29;20051;-74
2022/10/02 11:56:23;;;;;;;21.58;3.08;;;17.40;74.00;;;;;;4808035;29;20043;-73
2022/10/02 11:59:06;;;;;;;15.32;2.55;;;17.40;73.10;;;;;;4781154;29;20062;-73
2022/10/02 12:02:01;;;;;;;18.65;2.70;;;17.50;70.20;;;;;;4808021;29;20136;-72
2022/10/02 12:04:42;;;;;;;14.05;2.35;;;17.40;71.00;;;;;;4808052;29;20055;-73
2022/10/02 12:07:33;;;;;;;10.38;2.65;;;17.40;71.30;;;;;;4808290;29;20134;-73
2022/10/02 12:10:18;;;;;;;10.43;2.20;;;17.30;71.90;;;;;;4812549;29;20371;-73
2022/10/02 12:12:56;;;;;;;7.97;1.77;;;17.30;72.10;;;;;;4808348;29;20420;-73
2022/10/02 12:15:45;;;;;;;11.57;2.13;;;17.30;72.20;;;;;;4817617;29;20525;-73
2022/10/02 12:18:38;;;;;;;12.10;1.80;;;17.40;72.30;;;;;;4817546;29;20102;-75
2022/10/02 12:27:39;;;;;;;12.27;2.40;;;17.30;72.60;;;;;;4807823;29;20054;-75
2022/10/02 12:30:15;;;;;;;14.77;2.08;;;17.30;72.80;;;;;;4772651;29;20398;-75
2022/10/02 12:32:51;;;;;;;10.85;2.20;;;17.30;72.80;;;;;;4807558;29;20062;-80
2022/10/02 12:35:19;;;;;;;14.77;2.38;;;17.30;72.90;;;;;;4807656;29;20059;-74
2022/10/02 12:38:14;;;;;;;15.75;2.55;;;17.40;72.70;;;;;;4807946;29;20480;-74
2022/10/02 12:41:02;;;;;;;17.98;3.25;;;17.40;72.70;;;;;;4807655;29;20078;-76
2022/10/02 12:44:23;;;;;;;17.23;2.60;;;17.40;72.90;;;;;;4807974;29;20416;-74
2022/10/02 12:47:21;;;;;;;14.60;2.58;;;17.40;73.10;;;;;;4805741;29;20059;-75
2022/10/02 12:50:02;;;;;;;12.18;2.35;;;17.40;71.10;;;;;;4808117;29;20059;-74
2022/10/02 12:52:57;;;;;;;12.20;2.38;;;17.40;70.30;;;;;;4807417;29;20051;-73
2022/10/02 12:55:51;;;;;;;8.05;2.20;;;17.40;69.90;;;;;;4808074;29;20073;-75
2022/10/02 12:58:59;;;;;;;8.30;2.07;;;17.40;70.10;;;;;;4793362;30;20379;-74
2022/10/02 13:02:09;;;;;;;16.15;2.72;;;17.40;70.80;;;;;;4793201;29;20335;-76
2022/10/02 13:04:56;;;;;;;10.02;2.00;;;17.50;71.50;;;;;;4802206;29;20051;-75
2022/10/02 13:08:00;;;;;;;11.13;2.42;;;17.50;71.70;;;;;;4811453;29;20197;-76
2022/10/02 13:10:46;;;;;;;14.95;2.50;;;17.50;72.30;;;;;;4810898;29;20047;-74
2022/10/02 13:13:50;;;;;;;9.43;2.15;;;17.60;72.80;;;;;;4810764;29;20407;-74
2022/10/02 13:16:41;;;;;;;11.65;2.35;;;17.60;73.00;;;;;;4792840;30;20059;-75
2022/10/02 13:19:18;;;;;;;9.32;2.30;;;17.60;72.90;;;;;;4792717;30;20051;-75
2022/10/02 13:22:07;;;;;;;10.38;2.55;;;17.60;72.00;;;;;;4792723;30;20386;-73
2022/10/02 13:24:43;;;;;;;14.68;2.47;;;17.60;71.50;;;;;;4802204;29;20100;-73
2022/10/02 13:27:34;;;;;;;11.65;2.13;;;17.60;71.50;;;;;;4810961;29;20423;-74
2022/10/02 13:30:19;;;;;;;14.60;1.90;;;17.60;72.00;;;;;;4810719;29;20433;-75
2022/10/02 13:33:39;;;;;;;20.98;2.97;;;17.60;72.30;;;;;;4810772;29;20050;-73
2022/10/02 13:36:34;;;;;;;14.00;2.22;;;17.60;72.30;;;;;;4792365;30;20051;-83
2022/10/02 13:39:19;;;;;;;14.82;2.72;;;17.60;72.90;;;;;;4776745;30;20043;-82
2022/10/02 13:42:06;;;;;;;15.30;2.17;;;17.60;72.60;;;;;;4776613;30;20047;-81
2022/10/02 13:44:53;;;;;;;16.27;2.35;;;17.60;72.50;;;;;;4776665;30;20047;-81
2022/10/02 13:47:39;;;;;;;11.88;2.33;;;17.60;72.20;;;;;;4806109;29;20142;-77
2022/10/02 13:50:42;;;;;;;9.45;2.08;;;17.60;72.30;;;;;;4792075;30;20083;-77
2022/10/02 13:53:17;;;;;;;9.80;1.77;;;17.60;72.00;;;;;;4792222;29;20058;-76
2022/10/02 13:56:10;;;;;;;12.68;1.92;;;17.60;72.00;;;;;;4809454;29;20065;-75
2022/10/02 13:59:15;;;;;;;12.30;1.77;;;17.60;71.70;;;;;;4810635;29;20093;-75
2022/10/02 14:01:48;;;;;;;10.50;1.73;;;17.60;71.50;;;;;;4804305;29;20413;-76
2022/10/02 14:04:26;;;;;;;10.10;1.67;;;17.60;71.40;;;;;;4792263;30;20163;-74
2022/10/02 14:07:16;;;;;;;7.90;1.92;;;17.60;71.00;;;;;;4792042;29;20154;-76
2022/10/02 14:09:53;;;;;;;8.95;1.88;;;17.60;70.80;;;;;;4791838;29;20102;-76
2022/10/02 14:12:48;;;;;;;10.57;2.20;;;17.60;70.80;;;;;;4800040;29;20055;-75
2022/10/02 14:15:49;;;;;;;8.45;1.55;;;17.60;70.70;;;;;;4809898;29;20473;-75
2022/10/02 14:18:34;;;;;;;9.15;1.90;;;17.60;70.60;;;;;;4810000;29;20059;-77
2022/10/02 14:21:22;;;;;;;11.48;2.05;;;17.60;70.70;;;;;;4810052;29;20098;-74
2022/10/02 14:24:58;;;;;;;9.00;1.73;;;17.60;70.50;;;;;;4791788;30;20066;-78
2022/10/02 14:27:37;;;;;;;10.35;2.35;;;17.60;70.30;;;;;;4791909;30;20047;-77
2022/10/02 14:30:11;;;;;;;12.50;2.00;;;17.60;70.20;;;;;;4792154;30;20371;-78
2022/10/02 14:32:56;;;;;;;11.88;2.80;;;17.60;70.10;;;;;;4801868;29;20138;-77
2022/10/02 14:35:33;;;;;;;9.70;1.98;;;17.60;70.10;;;;;;4809532;29;20058;-79
2022/10/02 14:38:24;;;;;;;14.98;3.28;;;17.60;70.30;;;;;;4809280;29;20454;-78
2022/10/02 14:40:56;;;;;;;12.75;2.92;;;17.60;70.00;;;;;;4809574;29;20358;-77
2022/10/02 14:43:47;;;;;;;14.80;2.45;;;17.60;70.00;;;;;;4793482;29;20063;-78
2022/10/02 14:46:48;;;;;;;8.75;1.95;;;17.60;70.10;;;;;;4798275;29;20062;-78
2022/10/02 14:49:39;;;;;;;11.57;2.72;;;17.60;70.10;;;;;;4807999;29;20073;-77
2022/10/02 14:52:21;;;;;;;12.18;2.33;;;17.60;70.00;;;;;;4808439;29;20065;-78
2022/10/02 14:55:08;;;;;;;8.05;1.75;;;17.60;70.20;;;;;;4804286;29;20125;-79
2022/10/02 14:57:55;;;;;;;8.38;1.80;;;17.60;70.40;;;;;;4805026;29;20063;-77
2022/10/02 15:00:24;;;;;;;10.75;2.08;;;17.60;70.60;;;;;;4790938;29;20050;-77
2022/10/02 15:03:20;;;;;;;11.15;1.73;;;17.60;70.70;;;;;;4790868;30;20058;-77
2022/10/02 15:06:17;;;;;;;9.02;1.60;;;17.60;70.80;;;;;;4802187;29;20108;-78
2022/10/02 15:09:13;;;;;;;9.18;1.70;;;17.60;70.90;;;;;;4809120;29;20058;-77
2022/10/02 15:11:42;;;;;;;6.25;1.70;;;17.60;71.10;;;;;;4810021;29;20130;-77
2022/10/02 15:14:17;;;;;;;11.38;2.00;;;17.60;71.10;;;;;;4809322;29;20055;-82
2022/10/02 15:20:28;;;;;;;9.77;1.90;;;17.60;71.10;;;;;;4804793;29;20042;-81
2022/10/02 15:22:58;;;;;;;12.52;2.40;;;17.60;71.20;;;;;;4775960;29;20069;-82
2022/10/02 15:25:49;;;;;;;9.45;1.52;;;17.60;71.20;;;;;;4774603;30;20500;-91
2022/10/02 15:29:04;;;;;;;9.00;1.83;;;17.60;71.40;;;;;;4775246;30;20399;-85
2022/10/02 15:32:04;;;;;;;12.88;2.28;;;17.60;71.90;;;;;;4774615;30;20123;-79
2022/10/02 15:34:45;;;;;;;10.40;2.33;;;17.60;72.00;;;;;;4784325;29;20455;-84
2022/10/02 15:37:38;;;;;;;11.05;2.05;;;17.60;71.60;;;;;;4807015;29;20459;-80
2022/10/02 15:40:34;;;;;;;11.00;2.35;;;17.60;72.00;;;;;;4808407;29;20058;-79
2022/10/02 15:43:35;;;;;;;11.27;2.15;;;17.70;71.20;;;;;;4792239;29;20046;-77
2022/10/02 15:46:19;;;;;;;13.55;2.20;;;17.60;69.90;;;;;;4810831;29;20073;-78
2022/10/02 15:49:10;;;;;;;7.60;1.90;;;17.60;69.70;;;;;;4826355;29;20062;-77
2022/10/02 15:51:55;;;;;;;8.27;1.42;;;17.60;69.40;;;;;;4826563;29;20137;-79
2022/10/02 15:54:41;;;;;;;10.23;2.30;;;17.60;70.00;;;;;;4826528;29;20497;-80
2022/10/02 15:57:21;;;;;;;11.02;2.53;;;17.60;70.20;;;;;;4789082;30;20063;-79
2022/10/02 16:00:08;;;;;;;9.95;1.88;;;17.60;70.70;;;;;;4820430;29;20054;-77
2022/10/02 16:02:37;;;;;;;9.43;2.28;;;17.60;70.70;;;;;;4786684;29;20055;-77
2022/10/02 16:05:30;;;;;;;8.65;1.80;;;17.60;70.70;;;;;;4774319;30;20150;-77
2022/10/02 16:08:23;;;;;;;10.18;1.88;;;17.60;70.30;;;;;;4789961;30;20159;-78
2022/10/02 16:11:22;;;;;;;11.45;2.17;;;17.60;69.90;;;;;;4797351;29;20130;-80
2022/10/02 16:14:05;;;;;;;15.98;2.53;;;17.60;69.90;;;;;;4807153;29;20474;-80
2022/10/02 16:17:00;;;;;;;15.73;1.90;;;17.60;69.80;;;;;;4807211;29;20055;-79
2022/10/02 16:19:56;;;;;;;9.75;2.17;;;17.60;69.60;;;;;;4759644;30;20063;-79
2022/10/02 16:22:47;;;;;;;9.63;2.47;;;17.60;69.60;;;;;;4788177;29;20613;-78
2022/10/02 16:25:48;;;;;;;16.05;2.58;;;17.60;69.90;;;;;;4788323;29;20055;-80
2022/10/02 16:28:23;;;;;;;20.55;2.83;;;17.60;70.00;;;;;;4774357;30;20402;-79
2022/10/02 16:30:48;;;;;;;14.45;2.60;;;17.60;69.60;;;;;;4779392;29;20063;-78
2022/10/02 16:33:28;;;;;;;22.42;3.92;;;17.60;69.60;;;;;;4811009;29;20132;-80
2022/10/02 16:36:03;;;;;;;14.15;2.33;;;17.60;69.90;;;;;;4813959;29;20077;-78
2022/10/02 18:23:56;;;;;;;15.35;2.47;;;17.00;70.00;;;;;;5642005;24;20051;-81
2022/10/02 18:26:25;;;;;;;11.30;2.30;;;17.00;70.30;;;;;;4795262;29;20101;-75
2022/10/02 18:28:59;;;;;;;10.07;1.83;;;17.10;70.30;;;;;;4800513;29;20056;-76
2022/10/02 18:31:53;;;;;;;13.15;2.95;;;17.10;70.20;;;;;;4809946;29;20057;-77
2022/10/02 18:34:53;;;;;;;13.43;2.13;;;17.10;70.10;;;;;;4809693;29;20090;-78
2022/10/02 18:38:03;;;;;;;8.90;1.77;;;17.10;69.80;;;;;;4773917;30;20455;-79
2022/10/02 18:40:59;;;;;;;9.73;2.17;;;17.10;69.80;;;;;;4791564;30;20055;-77
2022/10/02 18:43:50;;;;;;;9.43;1.90;;;17.20;70.00;;;;;;4775501;30;20059;-78
2022/10/02 18:46:41;;;;;;;9.32;1.85;;;17.20;70.30;;;;;;4791398;29;20435;-79
2022/10/02 18:49:30;;;;;;;8.93;1.55;;;17.20;70.30;;;;;;4791120;30;20134;-78
2022/10/02 18:52:02;;;;;;;8.02;1.88;;;17.30;70.60;;;;;;4790661;29;20076;-78
2022/10/02 18:54:44;;;;;;;6.60;1.42;;;17.30;70.80;;;;;;4795802;29;20050;-76
2022/10/02 18:57:30;;;;;;;11.02;2.05;;;17.40;70.80;;;;;;4823576;29;20086;-77
2022/10/02 19:00:22;;;;;;;11.95;2.25;;;17.30;70.50;;;;;;4775566;30;20059;-77
2022/10/02 19:02:50;;;;;;;6.95;1.27;;;17.30;70.30;;;;;;4794689;29;20043;-77
2022/10/02 19:05:36;;;;;;;7.82;1.90;;;17.30;70.20;;;;;;4804688;29;20047;-76
2022/10/02 19:08:02;;;;;;;8.30;1.60;;;17.40;70.40;;;;;;4789214;29;20059;-74
2022/10/02 19:10:31;;;;;;;10.75;1.80;;;17.40;69.80;;;;;;4791039;30;20055;-76
2022/10/02 19:13:25;;;;;;;8.35;1.95;;;17.30;69.20;;;;;;4790532;30;20143;-74
2022/10/02 19:15:54;;;;;;;10.27;2.30;;;17.20;69.10;;;;;;4790551;29;20063;-73
2022/10/02 19:18:26;;;;;;;10.50;1.80;;;17.20;69.20;;;;;;4791178;30;20051;-81
2022/10/02 19:20:59;;;;;;;9.05;1.95;;;17.10;69.20;;;;;;4792898;29;20058;-75
2022/10/02 19:23:38;;;;;;;8.05;2.00;;;17.00;69.40;;;;;;4809271;29;20058;-72
2022/10/02 19:26:20;;;;;;;7.80;1.60;;;16.90;69.50;;;;;;4808455;29;20065;-74
2022/10/02 19:28:50;;;;;;;11.35;1.73;;;16.90;69.60;;;;;;4808843;29;20062;-74
2022/10/02 19:31:28;;;;;;;10.75;2.05;;;16.80;69.70;;;;;;4812942;29;20410;-73
2022/10/02 19:33:57;;;;;;;11.45;2.22;;;16.70;69.80;;;;;;4817746;29;20046;-74
2022/10/02 19:36:30;;;;;;;11.68;1.77;;;16.70;69.90;;;;;;4813248;29;20050;-74
2022/10/02 19:39:03;;;;;;;10.98;2.67;;;16.70;70.00;;;;;;4818036;29;20058;-73
2022/10/02 19:41:34;;;;;;;6.38;1.67;;;16.80;70.00;;;;;;4816915;29;20398;-74
2022/10/02 19:44:05;;;;;;;8.60;1.15;;;16.80;69.90;;;;;;4794777;29;20367;-73
2022/10/02 19:46:43;;;;;;;5.63;1.55;;;16.80;69.90;;;;;;4808380;29;20061;-75
2022/10/02 19:49:24;;;;;;;7.00;1.65;;;16.80;69.90;;;;;;4811717;29;20057;-74
2022/10/02 19:51:51;;;;;;;6.60;1.27;;;16.80;69.90;;;;;;4812982;29;20168;-73
2022/10/02 19:54:36;;;;;;;9.20;1.35;;;16.80;70.00;;;;;;4815690;29;20378;-74
2022/10/02 19:57:14;;;;;;;10.75;1.25;;;16.80;69.90;;;;;;4809754;29;20435;-74
2022/10/02 20:00:00;;;;;;;11.23;1.45;;;16.80;69.90;;;;;;4802147;29;20051;-73
2022/10/02 20:02:34;;;;;;;12.73;1.85;;;16.80;69.90;;;;;;4793011;29;20094;-73
2022/10/02 20:05:05;;;;;;;10.35;1.65;;;16.80;70.00;;;;;;4798307;29;20047;-73
2022/10/02 20:07:35;;;;;;;8.07;1.60;;;16.80;69.90;;;;;;4806201;29;20383;-73
2022/10/02 20:10:13;;;;;;;9.52;1.83;;;16.70;69.90;;;;;;4804201;29;20043;-73
2022/10/02 20:12:47;;;;;;;14.77;2.42;;;16.70;69.80;;;;;;4790357;30;20092;-75
2022/10/02 20:17:07;;;;;;;7.78;1.98;;;16.60;69.90;;;;;;4790358;30;20405;-73
2022/10/02 20:18:05;;;;;;;8.30;2.25;;;16.60;70.00;;;;;;4797588;29;20109;-73
2022/10/02 20:20:33;;;;;;;17.27;2.40;;;16.50;70.10;;;;;;4802576;29;20047;-73
2022/10/02 20:23:03;;;;;;;8.25;1.45;;;16.50;70.10;;;;;;4806052;29;20051;-74
2022/10/02 20:25:40;;;;;;;9.48;1.98;;;16.40;70.30;;;;;;4789281;29;20179;-74
2022/10/02 20:28:37;;;;;;;9.00;1.80;;;16.40;70.30;;;;;;4790401;29;20455;-74
2022/10/02 20:31:16;;;;;;;10.10;1.73;;;16.40;70.40;;;;;;4796773;29;20129;-73
2022/10/02 20:33:54;;;;;;;10.60;2.17;;;16.40;70.70;;;;;;4807401;29;20055;-74
2022/10/02 20:36:25;;;;;;;8.07;2.53;;;16.40;70.70;;;;;;4807071;29;21503;-74
2022/10/02 20:39:00;;;;;;;11.05;1.90;;;16.40;70.60;;;;;;4808069;29;20042;-73
2022/10/02 20:41:39;;;;;;;9.25;2.42;;;16.50;70.60;;;;;;4800547;29;20069;-74
2022/10/02 20:44:05;;;;;;;6.82;1.50;;;16.60;70.60;;;;;;4807069;29;20047;-74
2022/10/02 20:47:01;;;;;;;10.48;1.90;;;16.60;70.50;;;;;;4799639;29;20463;-75
2022/10/02 20:49:39;;;;;;;11.73;2.55;;;16.60;70.40;;;;;;4789895;30;20061;-74
2022/10/02 20:52:34;;;;;;;13.38;2.45;;;16.60;70.20;;;;;;4804871;29;20466;-74
2022/10/02 20:55:31;;;;;;;10.05;2.15;;;16.70;70.20;;;;;;4807910;29;20055;-72
2022/10/02 20:58:25;;;;;;;9.23;1.95;;;16.70;70.10;;;;;;4812982;29;20063;-74
2022/10/02 21:00:54;;;;;;;10.02;1.92;;;16.70;70.00;;;;;;4807543;29;20458;-75
2022/10/02 21:03:55;;;;;;;8.77;1.98;;;16.70;70.00;;;;;;4797644;29;20117;-76
2022/10/02 21:06:29;;;;;;;11.40;1.55;;;16.70;69.90;;;;;;4777851;30;20380;-74
2022/10/02 21:08:58;;;;;;;11.00;1.80;;;16.70;69.90;;;;;;4804802;29;20054;-73
2022/10/02 21:11:44;;;;;;;9.60;1.73;;;16.70;69.80;;;;;;4799611;29;20051;-74
2022/10/02 21:14:29;;;;;;;10.88;2.10;;;16.70;69.70;;;;;;4791530;29;20344;-75
2022/10/02 21:17:16;;;;;;;10.25;2.20;;;16.70;69.40;;;;;;4797672;29;20078;-75
2022/10/02 21:20:00;;;;;;;12.63;2.13;;;16.60;69.40;;;;;;4785426;29;20105;-75
2022/10/02 21:22:29;;;;;;;9.90;2.63;;;16.50;69.60;;;;;;4825304;29;20059;-74
2022/10/02 21:25:22;;;;;;;11.15;2.20;;;16.40;69.80;;;;;;4810744;29;20376;-74
2022/10/02 21:28:06;;;;;;;15.40;2.33;;;16.30;69.90;;;;;;4811489;29;20133;-75
2022/10/02 21:30:55;;;;;;;11.07;1.80;;;16.30;70.20;;;;;;4810653;29;20424;-76
2022/10/02 21:33:30;;;;;;;10.52;1.98;;;16.20;70.30;;;;;;4797609;29;20059;-76
